Hampton Beach, New Hampshire
Current Conditions -  °F | °C
As of 12:31 PM on Thursday 23 Oct 2014 (Local Time) from KPSM Reporting Station
Light Rain Light Rain  
Wind Chill: 52°   Ceiling: 900
Heat Index: 52°   Visibility: 4mi
Dew Point: 50°   Wind: 20mph
Humidity: 94%   Direction: 20°NNE
Pressure: 29.67"   Gusts: 31mph
Location:  42.9284°N, 70.8566°W
Report Text: KPSM 231631Z 02017G27KT 4SM -RA BR BKN009 OVC013 11/10 A2967 RMK AO2A
Loading
Personal Weather Stations






























Interactive Weather Map New forecast layout! Learn more

10-Day Weather Forecast

Advertisements
Track Severe Weather on mobile